createdAt,value
2023-05-11T00:01:12.782Z,100796.47
2023-05-11T00:03:42.856Z,100791.44
2023-05-11T00:06:11.670Z,100794.22
2023-05-11T00:08:40.287Z,100792.97
2023-05-11T00:11:09.148Z,100791.19
2023-05-11T00:13:37.386Z,100786.28
2023-05-11T00:16:06.657Z,100792.53
2023-05-11T00:18:35.363Z,100787.50
2023-05-11T00:21:05.488Z,100792.81
2023-05-11T00:23:34.120Z,100794.84
2023-05-11T00:26:02.720Z,100793.44
2023-05-11T00:28:30.901Z,100792.72
2023-05-11T00:30:59.756Z,100797.03
2023-05-11T00:33:28.389Z,100789.66
2023-05-11T00:35:57.090Z,100791.03
2023-05-11T00:38:27.577Z,100790.31
2023-05-11T00:40:55.729Z,100793.94
2023-05-11T00:43:24.525Z,100789.50
2023-05-11T00:45:53.644Z,100786.84
2023-05-11T00:48:22.133Z,100783.34
2023-05-11T00:50:50.885Z,100784.06
2023-05-11T00:53:19.521Z,100779.75
2023-05-11T00:55:49.432Z,100782.78
2023-05-11T00:58:17.960Z,100782.94
2023-05-11T01:00:48.225Z,100784.16
2023-05-11T01:03:17.450Z,100775.88
2023-05-11T01:05:47.237Z,100778.78
2023-05-11T01:08:16.994Z,100777.25
2023-05-11T01:10:47.536Z,100780.13
2023-05-11T01:13:19.026Z,100785.09
2023-05-11T01:15:49.413Z,100778.41
2023-05-11T01:18:21.168Z,100777.94
2023-05-11T01:20:50.389Z,100774.47
2023-05-11T01:23:26.161Z,100776.97
2023-05-11T01:26:11.609Z,100776.50
2023-05-11T01:28:51.643Z,100775.53
2023-05-11T01:31:21.996Z,100772.06
2023-05-11T01:33:53.151Z,100770.25
2023-05-11T01:36:21.896Z,100773.03
2023-05-11T01:38:50.430Z,100767.03
2023-05-11T01:41:19.832Z,100768.09
2023-05-11T01:43:53.410Z,100769.28
2023-05-11T01:46:23.551Z,100762.59
2023-05-11T01:48:52.802Z,100766.53
2023-05-11T01:51:22.434Z,100761.25
2023-05-11T01:53:51.017Z,100765.38
2023-05-11T01:56:19.511Z,100770.66
2023-05-11T01:58:48.737Z,100774.38
2023-05-11T02:01:19.796Z,100774.88
2023-05-11T02:03:50.207Z,100771.75
2023-05-11T02:06:19.034Z,100772.25
2023-05-11T02:08:48.315Z,100770.66
2023-05-11T02:11:16.990Z,100771.28
2023-05-11T02:13:46.604Z,100772.75
2023-05-11T02:16:15.751Z,100774.16
2023-05-11T02:18:44.739Z,100777.78
2023-05-11T02:21:14.691Z,100774.16
2023-05-11T02:23:43.396Z,100765.63
2023-05-11T02:26:12.286Z,100770.91
2023-05-11T02:28:40.800Z,100771.88
2023-05-11T02:31:11.157Z,100774.53
2023-05-11T02:33:41.090Z,100763.50
2023-05-11T02:36:09.646Z,100775.72
2023-05-11T02:38:39.764Z,100774.91
2023-05-11T02:41:13.525Z,100774.06
2023-05-11T02:43:45.029Z,100774.56
2023-05-11T02:46:15.573Z,100771.78
2023-05-11T02:48:45.358Z,100776.25
2023-05-11T02:51:14.354Z,100773.72
2023-05-11T02:53:49.160Z,100780.56
2023-05-11T02:56:17.879Z,100780.44
2023-05-11T02:58:46.141Z,100782.13
2023-05-11T03:01:28.082Z,100779.63
2023-05-11T03:03:59.224Z,100777.66
2023-05-11T03:06:29.837Z,100776.59
2023-05-11T03:09:00.036Z,100786.56
2023-05-11T03:11:28.852Z,100775.53
2023-05-11T03:13:57.423Z,100787.25
2023-05-11T03:16:25.674Z,100782.94
2023-05-11T03:18:55.742Z,100783.47
2023-05-11T03:21:24.547Z,100792.81
2023-05-11T03:23:53.073Z,100788.69
2023-05-11T03:26:23.203Z,100794.69
2023-05-11T03:28:51.558Z,100791.28
2023-05-11T03:31:20.341Z,100782.97
2023-05-11T03:33:49.277Z,100792.97
2023-05-11T03:36:17.859Z,100797.53
2023-05-11T03:38:46.791Z,100799.47
2023-05-11T03:41:18.765Z,100800.34
2023-05-11T03:43:53.398Z,100803.84
2023-05-11T03:46:24.229Z,100803.47
2023-05-11T03:48:53.141Z,100811.16
2023-05-11T03:51:25.687Z,100812.81
2023-05-11T03:53:54.298Z,100809.53
2023-05-11T03:56:22.933Z,100814.47
2023-05-11T03:58:54.100Z,100811.56
2023-05-11T04:01:23.165Z,100817.88
2023-05-11T04:03:52.303Z,100816.97
2023-05-11T04:06:21.176Z,100823.31
2023-05-11T04:08:56.616Z,100817.44
2023-05-11T04:11:25.264Z,100819.00
2023-05-11T04:13:55.027Z,100816.66
2023-05-11T04:16:23.639Z,100818.00
2023-05-11T04:18:52.214Z,100819.34
2023-05-11T04:21:20.768Z,100818.63
2023-05-11T04:23:49.271Z,100821.41
2023-05-11T04:26:17.884Z,100814.78
2023-05-11T04:28:46.054Z,100816.78
2023-05-11T04:31:17.441Z,100815.38
2023-05-11T04:33:46.120Z,100820.03
2023-05-11T04:36:14.738Z,100821.06
2023-05-11T04:38:43.637Z,100820.47
2023-05-11T04:41:12.701Z,100822.03
2023-05-11T04:43:41.710Z,100823.72
2023-05-11T04:46:11.488Z,100824.31
2023-05-11T04:48:42.129Z,100828.25
2023-05-11T04:51:11.151Z,100826.44
2023-05-11T04:53:43.673Z,100827.19
2023-05-11T04:56:12.780Z,100825.63
2023-05-11T04:58:41.094Z,100838.41
2023-05-11T05:01:10.668Z,100833.72
2023-05-11T05:03:39.296Z,100830.81
2023-05-11T05:06:09.565Z,100827.88
2023-05-11T05:08:39.704Z,100834.03
2023-05-11T05:11:08.244Z,100828.59
2023-05-11T05:13:37.956Z,100834.72
2023-05-11T05:16:06.937Z,100839.22
2023-05-11T05:18:35.626Z,100834.59
2023-05-11T05:21:04.536Z,100837.19
2023-05-11T05:23:34.565Z,100837.47
2023-05-11T05:26:03.340Z,100837.59
2023-05-11T05:28:33.256Z,100843.31
2023-05-11T05:31:02.068Z,100843.13
2023-05-11T05:33:30.830Z,100837.03
2023-05-11T05:35:59.563Z,100837.25
2023-05-11T05:38:28.672Z,100833.81
2023-05-11T05:41:00.133Z,100839.63
2023-05-11T05:43:31.892Z,100847.16
2023-05-11T05:46:00.619Z,100848.16
2023-05-11T05:48:30.635Z,100845.69
2023-05-11T05:51:00.324Z,100849.00
2023-05-11T05:53:29.741Z,100843.38
2023-05-11T05:55:59.741Z,100844.97
2023-05-11T05:58:27.895Z,100852.44
2023-05-11T06:00:57.726Z,100849.06
2023-05-11T06:03:28.541Z,100845.34
2023-05-11T06:08:11.293Z,100841.34
2023-05-11T06:10:41.606Z,100850.47
2023-05-11T06:13:12.558Z,100848.56
2023-05-11T06:15:43.976Z,100858.03
2023-05-11T06:18:33.530Z,100849.94
2023-05-11T06:21:04.534Z,100853.81
2023-05-11T06:23:35.937Z,100852.81
2023-05-11T06:26:04.941Z,100857.25
2023-05-11T06:28:34.575Z,100860.16
2023-05-11T06:31:07.078Z,100854.13
2023-05-11T06:33:38.402Z,100854.53
2023-05-11T06:36:12.799Z,100855.06
2023-05-11T06:38:43.194Z,100858.63
2023-05-11T06:41:13.289Z,100852.50
2023-05-11T06:43:42.456Z,100852.50
2023-05-11T06:46:22.370Z,100863.16
2023-05-11T06:48:51.688Z,100853.97
2023-05-11T06:51:21.832Z,100858.63
2023-05-11T06:53:52.267Z,100872.94
2023-05-11T06:56:22.371Z,100856.75
2023-05-11T06:58:50.856Z,100869.28
2023-05-11T07:01:19.791Z,100869.28
2023-05-11T07:03:49.599Z,100855.31
2023-05-11T07:06:19.766Z,100862.16
2023-05-11T07:08:48.737Z,100864.31
2023-05-11T07:11:19.219Z,100865.84
2023-05-11T07:13:47.822Z,100866.66
2023-05-11T07:16:16.933Z,100858.97
2023-05-11T07:18:45.924Z,100873.66
2023-05-11T07:21:14.921Z,100850.44
2023-05-11T07:23:44.604Z,100848.16
2023-05-11T07:26:13.976Z,100857.47
2023-05-11T07:28:43.989Z,100841.16
2023-05-11T07:31:12.819Z,100857.19
2023-05-11T07:33:41.688Z,100845.25
2023-05-11T07:36:10.887Z,100845.75
2023-05-11T07:38:39.860Z,100843.66
2023-05-11T07:41:10.790Z,100841.38
2023-05-11T07:43:41.744Z,100836.16
2023-05-11T07:46:12.481Z,100840.56
2023-05-11T07:48:41.472Z,100848.53
2023-05-11T07:51:10.320Z,100848.44
2023-05-11T07:53:39.454Z,100849.63
2023-05-11T07:56:08.875Z,100850.00
2023-05-11T07:58:37.748Z,100846.31
2023-05-11T08:01:07.514Z,100844.03
2023-05-11T08:03:37.946Z,100850.28
2023-05-11T08:06:07.166Z,100851.78
2023-05-11T08:08:37.473Z,100847.81
2023-05-11T08:11:06.973Z,100847.72
2023-05-11T08:13:35.856Z,100839.94
2023-05-11T08:16:05.414Z,100848.13
2023-05-11T08:18:34.441Z,100843.00
2023-05-11T08:21:05.558Z,100843.91
2023-05-11T08:23:34.482Z,100845.94
2023-05-11T08:26:03.352Z,100829.50
2023-05-11T08:28:32.074Z,100838.88
2023-05-11T08:31:02.880Z,100837.44
2023-05-11T08:33:38.105Z,100832.72
2023-05-11T08:36:10.440Z,100831.06
2023-05-11T08:38:39.357Z,100827.22
2023-05-11T08:41:08.895Z,100846.84
2023-05-11T08:43:38.836Z,100835.78
2023-05-11T08:46:09.168Z,100834.31
2023-05-11T08:48:37.879Z,100836.81
2023-05-11T08:51:08.806Z,100829.28
2023-05-11T08:53:38.874Z,100837.75
2023-05-11T08:56:09.354Z,100840.38
2023-05-11T08:58:38.597Z,100836.28
2023-05-11T09:01:08.863Z,100826.03
2023-05-11T09:03:38.565Z,100820.00
2023-05-11T09:06:10.837Z,100827.50
2023-05-11T09:08:40.028Z,100836.78
2023-05-11T09:11:08.997Z,100838.22
2023-05-11T09:13:37.654Z,100845.19
2023-05-11T09:16:13.821Z,100834.34
2023-05-11T09:18:53.682Z,100835.25
2023-05-11T09:21:26.410Z,100811.69
2023-05-11T09:23:59.245Z,100827.38
2023-05-11T09:26:29.821Z,100821.66
2023-05-11T09:31:38.175Z,100828.22
2023-05-11T09:34:11.385Z,100823.19
2023-05-11T09:36:41.998Z,100817.94
2023-05-11T09:39:15.319Z,100811.94
2023-05-11T09:41:45.457Z,100812.19
2023-05-11T09:44:15.872Z,100825.13
2023-05-11T09:46:45.936Z,100816.31
2023-05-11T09:49:15.240Z,100806.72
2023-05-11T09:51:45.570Z,100811.44
2023-05-11T09:54:17.881Z,100817.16
2023-05-11T09:56:50.824Z,100794.69
2023-05-11T09:59:39.043Z,100811.06
2023-05-11T10:02:22.579Z,100797.16
2023-05-11T10:04:52.904Z,100793.59
2023-05-11T10:07:30.795Z,100789.63
2023-05-11T10:10:01.718Z,100791.72
2023-05-11T10:12:33.615Z,100775.94
2023-05-11T10:15:05.033Z,100777.41
2023-05-11T10:17:34.384Z,100790.91
2023-05-11T10:20:04.836Z,100778.75
2023-05-11T10:22:34.808Z,100783.41
2023-05-11T10:25:06.133Z,100768.53
2023-05-11T10:27:35.155Z,100769.72
2023-05-11T10:30:04.962Z,100764.53
2023-05-11T10:32:38.115Z,100772.09
2023-05-11T10:35:08.446Z,100768.63
2023-05-11T10:37:38.483Z,100771.03
2023-05-11T10:40:09.132Z,100750.25
2023-05-11T10:42:56.497Z,100761.66
2023-05-11T10:45:28.289Z,100774.25
2023-05-11T10:48:17.870Z,100765.81
2023-05-11T10:50:58.332Z,100753.69
2023-05-11T10:53:54.764Z,100757.50
2023-05-11T10:56:35.393Z,100761.25
2023-05-11T10:59:53.513Z,100759.34
2023-05-11T11:02:23.312Z,100775.63
2023-05-11T11:04:53.735Z,100761.38
2023-05-11T11:07:23.532Z,100754.84
2023-05-11T11:09:56.294Z,100743.50
2023-05-11T11:12:27.085Z,100746.22
2023-05-11T11:15:00.320Z,100748.63
2023-05-11T11:17:32.465Z,100743.41
2023-05-11T11:20:02.281Z,100738.47
2023-05-11T11:22:50.476Z,100736.88
2023-05-11T11:25:55.020Z,100733.06
2023-05-11T11:28:24.856Z,100736.19
2023-05-11T11:31:08.428Z,100733.28
2023-05-11T11:33:37.556Z,100747.75
2023-05-11T11:36:06.728Z,100742.09
2023-05-11T11:38:35.978Z,100731.22
2023-05-11T11:41:09.550Z,100744.56
2023-05-11T11:43:46.266Z,100733.81
2023-05-11T11:46:28.293Z,100743.47
2023-05-11T11:49:08.688Z,100744.03
2023-05-11T11:51:40.605Z,100735.03
2023-05-11T11:54:09.892Z,100724.56
2023-05-11T11:56:41.561Z,100741.50
2023-05-11T11:59:14.052Z,100757.78
2023-05-11T12:01:44.452Z,100750.38
2023-05-11T12:04:42.141Z,100759.63
2023-05-11T12:07:11.547Z,100753.47
2023-05-11T12:09:41.521Z,100745.25
2023-05-11T12:12:12.355Z,100742.00
2023-05-11T12:14:49.053Z,100751.00
2023-05-11T12:17:26.994Z,100739.44
2023-05-11T12:19:55.961Z,100731.50
2023-05-11T12:22:25.488Z,100730.34
2023-05-11T12:25:00.162Z,100722.34
2023-05-11T12:27:31.049Z,100718.59
2023-05-11T12:30:00.416Z,100717.09
2023-05-11T12:32:29.791Z,100715.84
2023-05-11T12:35:01.434Z,100718.81
2023-05-11T12:37:30.804Z,100728.91
2023-05-11T12:40:00.307Z,100728.59
2023-05-11T12:42:31.150Z,100737.44
2023-05-11T12:45:01.656Z,100725.59
2023-05-11T12:47:30.638Z,100735.03
2023-05-11T12:49:59.564Z,100717.03
2023-05-11T12:52:28.271Z,100709.03
2023-05-11T12:55:00.779Z,100705.00
2023-05-11T12:57:33.629Z,100707.31
2023-05-11T13:00:11.409Z,100698.28
2023-05-11T13:02:49.997Z,100709.63
2023-05-11T13:05:20.883Z,100705.72
2023-05-11T13:07:50.014Z,100706.75
2023-05-11T13:10:25.694Z,100698.97
2023-05-11T13:12:56.334Z,100702.09
2023-05-11T13:15:26.235Z,100698.66
2023-05-11T13:17:59.368Z,100688.50
2023-05-11T13:20:30.160Z,100687.13
2023-05-11T13:23:06.481Z,100694.09
2023-05-11T13:25:36.415Z,100686.06
2023-05-11T13:28:06.870Z,100678.53
2023-05-11T13:30:36.015Z,100683.16
2023-05-11T13:33:05.131Z,100683.69
2023-05-11T13:35:33.999Z,100674.28
2023-05-11T13:38:03.321Z,100679.72
2023-05-11T13:40:31.872Z,100676.22
2023-05-11T13:43:01.030Z,100678.91
2023-05-11T13:45:31.617Z,100684.84
2023-05-11T13:48:00.962Z,100674.38
2023-05-11T13:50:29.809Z,100678.91
2023-05-11T13:52:58.647Z,100678.44
2023-05-11T13:55:27.075Z,100676.47
2023-05-11T13:57:56.457Z,100683.53
2023-05-11T14:00:25.532Z,100675.09
2023-05-11T14:02:58.328Z,100669.06
2023-05-11T14:05:27.626Z,100681.25
2023-05-11T14:07:56.057Z,100673.50
2023-05-11T14:10:25.068Z,100667.69
2023-05-11T14:12:53.962Z,100663.56
2023-05-11T14:15:23.032Z,100665.72
2023-05-11T14:17:51.987Z,100666.34
2023-05-11T14:20:22.652Z,100674.28
2023-05-11T14:22:51.553Z,100679.91
2023-05-11T14:25:20.726Z,100655.22
2023-05-11T14:27:52.429Z,100665.66
2023-05-11T14:30:21.444Z,100665.56
2023-05-11T14:32:50.796Z,100666.78
2023-05-11T14:35:20.531Z,100661.94
2023-05-11T14:37:51.338Z,100666.13
2023-05-11T14:40:20.229Z,100663.00
2023-05-11T14:42:49.074Z,100658.25
2023-05-11T14:45:18.360Z,100657.03
2023-05-11T14:47:47.399Z,100669.41
2023-05-11T14:50:16.446Z,100658.06
2023-05-11T14:52:45.082Z,100658.25
2023-05-11T14:55:15.687Z,100655.06
2023-05-11T14:57:44.679Z,100657.13
2023-05-11T15:00:14.637Z,100649.06
2023-05-11T15:02:44.329Z,100652.81
2023-05-11T15:05:13.282Z,100641.66
2023-05-11T15:07:41.754Z,100657.72
2023-05-11T15:10:11.369Z,100649.59
2023-05-11T15:12:41.753Z,100657.50
2023-05-11T15:15:11.438Z,100656.19
2023-05-11T15:17:40.092Z,100656.59
2023-05-11T15:20:10.510Z,100653.16
2023-05-11T15:22:39.412Z,100647.41
2023-05-11T15:25:09.051Z,100658.03
2023-05-11T15:27:37.636Z,100654.06
2023-05-11T15:30:09.296Z,100657.75
2023-05-11T15:32:38.314Z,100655.31
2023-05-11T15:35:07.984Z,100664.31
2023-05-11T15:37:36.594Z,100668.47
2023-05-11T15:40:08.651Z,100665.78
2023-05-11T15:42:37.991Z,100660.47
2023-05-11T15:45:09.899Z,100656.56
2023-05-11T15:47:38.889Z,100660.22
2023-05-11T15:50:09.410Z,100665.44
2023-05-11T15:52:37.962Z,100658.50
2023-05-11T15:55:07.466Z,100661.25
2023-05-11T15:57:38.517Z,100656.22
2023-05-11T16:00:11.179Z,100664.16
2023-05-11T16:02:40.761Z,100670.56
2023-05-11T16:05:10.208Z,100669.06
2023-05-11T16:07:38.818Z,100665.84
2023-05-11T16:10:08.923Z,100663.34
2023-05-11T16:12:37.864Z,100667.84
2023-05-11T16:15:10.332Z,100663.66
2023-05-11T16:17:39.323Z,100663.56
2023-05-11T16:20:10.350Z,100667.66
2023-05-11T16:22:39.189Z,100659.59
2023-05-11T16:25:09.300Z,100674.75
2023-05-11T16:27:38.150Z,100667.72
2023-05-11T16:30:22.239Z,100665.69
2023-05-11T16:32:53.265Z,100662.88
2023-05-11T16:35:22.608Z,100665.50
2023-05-11T16:37:51.332Z,100665.88
2023-05-11T16:40:21.604Z,100662.94
2023-05-11T16:42:50.787Z,100663.41
2023-05-11T16:45:21.162Z,100658.59
2023-05-11T16:47:50.317Z,100656.34
2023-05-11T16:50:19.322Z,100663.28
2023-05-11T16:52:48.783Z,100659.13
2023-05-11T16:55:19.494Z,100662.91
2023-05-11T16:57:48.615Z,100659.72
2023-05-11T17:00:18.215Z,100671.28
2023-05-11T17:02:48.989Z,100672.25
2023-05-11T17:05:18.842Z,100664.94
2023-05-11T17:07:47.570Z,100673.72
2023-05-11T17:10:17.551Z,100685.22
2023-05-11T17:12:46.746Z,100669.75
2023-05-11T17:15:16.278Z,100680.16
2023-05-11T17:17:45.230Z,100674.13
2023-05-11T17:20:15.992Z,100670.63
2023-05-11T17:22:44.479Z,100669.25
2023-05-11T17:25:13.396Z,100679.69
2023-05-11T17:27:42.645Z,100681.81
2023-05-11T17:30:12.747Z,100694.06
2023-05-11T17:32:41.527Z,100682.06
2023-05-11T17:35:11.429Z,100688.00
2023-05-11T17:37:41.558Z,100694.50
2023-05-11T17:40:10.768Z,100692.66
2023-05-11T17:42:39.865Z,100691.91
2023-05-11T17:45:10.245Z,100699.00
2023-05-11T17:47:39.477Z,100697.47
2023-05-11T17:50:09.710Z,100701.03
2023-05-11T17:52:38.565Z,100701.97
2023-05-11T17:55:11.008Z,100699.13
2023-05-11T17:57:41.051Z,100709.06
2023-05-11T18:00:11.285Z,100702.97
2023-05-11T18:02:40.190Z,100711.06
2023-05-11T18:05:09.660Z,100705.97
2023-05-11T18:07:38.338Z,100710.94
2023-05-11T18:10:11.042Z,100723.09
2023-05-11T18:12:40.101Z,100720.44
2023-05-11T18:15:10.958Z,100725.16
2023-05-11T18:17:40.906Z,100717.38
2023-05-11T18:20:11.547Z,100724.44
2023-05-11T18:22:40.294Z,100728.34
2023-05-11T18:25:11.492Z,100728.38
2023-05-11T18:27:40.529Z,100729.25
2023-05-11T18:30:10.790Z,100733.28
2023-05-11T18:32:39.557Z,100740.50
2023-05-11T18:35:09.400Z,100742.75
2023-05-11T18:37:38.038Z,100742.75
2023-05-11T18:40:11.268Z,100738.63
2023-05-11T18:42:40.374Z,100742.31
2023-05-11T18:45:10.314Z,100742.81
2023-05-11T18:47:41.758Z,100750.34
2023-05-11T18:50:11.973Z,100744.34
2023-05-11T18:52:40.443Z,100746.03
2023-05-11T18:55:11.445Z,100747.53
2023-05-11T18:57:40.741Z,100750.88
2023-05-11T19:00:11.779Z,100754.22
2023-05-11T19:02:40.798Z,100760.84
2023-05-11T19:05:10.681Z,100756.88
2023-05-11T19:07:39.359Z,100754.53
2023-05-11T19:10:11.006Z,100759.03
2023-05-11T19:12:40.384Z,100762.69
2023-05-11T19:15:10.552Z,100769.53
2023-05-11T19:17:39.567Z,100775.88
2023-05-11T19:20:10.908Z,100771.38
2023-05-11T19:22:40.275Z,100773.84
2023-05-11T19:25:11.546Z,100777.34
2023-05-11T19:27:40.893Z,100781.84
2023-05-11T19:30:10.592Z,100784.50
2023-05-11T19:33:46.539Z,100787.97
2023-05-11T19:36:15.540Z,100780.06
2023-05-11T19:41:28.610Z,100782.38
2023-05-11T19:43:57.164Z,100782.31
2023-05-11T19:46:26.174Z,100785.97
2023-05-11T19:48:55.183Z,100792.31
2023-05-11T19:51:24.075Z,100790.28
2023-05-11T19:53:53.821Z,100797.09
2023-05-11T19:56:23.327Z,100784.22
2023-05-11T19:58:53.369Z,100791.88
2023-05-11T20:01:22.129Z,100793.97
2023-05-11T20:03:51.195Z,100794.28
2023-05-11T20:06:20.183Z,100794.28
2023-05-11T20:08:49.101Z,100799.09
2023-05-11T20:11:17.997Z,100801.78
2023-05-11T20:13:47.926Z,100803.28
2023-05-11T20:16:18.438Z,100801.78
2023-05-11T20:18:47.500Z,100803.44
2023-05-11T20:21:16.737Z,100799.41
2023-05-11T20:23:45.698Z,100805.22
2023-05-11T20:26:14.520Z,100805.53
2023-05-11T20:28:42.991Z,100806.53
2023-05-11T20:31:11.901Z,100808.34
2023-05-11T20:36:16.502Z,100806.97
2023-05-11T20:38:45.411Z,100806.59
2023-05-11T20:41:14.331Z,100817.03
2023-05-11T20:43:42.893Z,100809.38
2023-05-11T20:46:12.466Z,100805.22
2023-05-11T20:48:44.656Z,100800.19
2023-05-11T20:51:17.013Z,100812.81
2023-05-11T20:53:46.207Z,100809.47
2023-05-11T20:56:15.100Z,100806.72
2023-05-11T20:58:44.342Z,100814.34
2023-05-11T21:01:13.491Z,100815.13
2023-05-11T21:03:44.042Z,100804.91
2023-05-11T21:06:13.014Z,100812.00
2023-05-11T21:08:41.871Z,100817.91
2023-05-11T21:11:11.429Z,100821.03
2023-05-11T21:13:39.850Z,100825.66
2023-05-11T21:16:09.396Z,100827.81
2023-05-11T21:18:38.262Z,100827.53
2023-05-11T21:21:10.260Z,100822.81
2023-05-11T21:23:39.252Z,100832.94
2023-05-11T21:26:08.201Z,100831.72
2023-05-11T21:28:39.417Z,100833.81
2023-05-11T21:31:08.820Z,100836.94
2023-05-11T21:33:38.045Z,100841.84
2023-05-11T21:36:09.443Z,100834.16
2023-05-11T21:38:38.496Z,100841.16
2023-05-11T21:41:07.938Z,100841.72
2023-05-11T21:43:37.113Z,100851.25
2023-05-11T21:46:06.230Z,100853.91
2023-05-11T21:48:35.196Z,100854.53
2023-05-11T21:51:04.126Z,100853.25
2023-05-11T21:53:34.756Z,100850.75
2023-05-11T21:56:03.611Z,100853.31
2023-05-11T21:58:32.774Z,100851.63
2023-05-11T22:01:02.615Z,100858.75
2023-05-11T22:03:31.765Z,100854.72
2023-05-11T22:06:00.868Z,100855.84
2023-05-11T22:08:29.720Z,100861.72
2023-05-11T22:11:00.088Z,100858.38
2023-05-11T22:13:29.184Z,100862.28
2023-05-11T22:15:58.159Z,100863.44
2023-05-11T22:18:27.197Z,100864.84
2023-05-11T22:20:56.410Z,100867.50
2023-05-11T22:23:25.334Z,100865.94
2023-05-11T22:25:53.747Z,100873.78
2023-05-11T22:28:24.143Z,100866.81
2023-05-11T22:30:53.071Z,100869.06
2023-05-11T22:33:22.045Z,100872.69
2023-05-11T22:35:51.082Z,100876.63
2023-05-11T22:38:20.003Z,100871.44
2023-05-11T22:40:49.406Z,100869.22
2023-05-11T22:43:18.301Z,100871.16
2023-05-11T22:45:48.630Z,100872.16
2023-05-11T22:48:17.333Z,100882.88
2023-05-11T22:50:47.680Z,100883.59
2023-05-11T22:53:16.319Z,100881.50
2023-05-11T22:55:45.166Z,100879.66
2023-05-11T22:58:14.162Z,100887.34
2023-05-11T23:00:43.156Z,100880.22
2023-05-11T23:03:13.650Z,100880.50
2023-05-11T23:05:43.233Z,100886.47
2023-05-11T23:08:12.088Z,100880.91
2023-05-11T23:10:40.704Z,100878.63
2023-05-11T23:13:11.086Z,100880.75
2023-05-11T23:15:39.777Z,100882.91
2023-05-11T23:18:08.825Z,100879.84
2023-05-11T23:20:39.240Z,100887.06
2023-05-11T23:23:07.798Z,100876.47
2023-05-11T23:25:36.363Z,100882.91
2023-05-11T23:28:11.459Z,100872.41
2023-05-11T23:30:40.715Z,100879.97
2023-05-11T23:33:09.643Z,100875.91
2023-05-11T23:35:40.196Z,100879.53
2023-05-11T23:38:09.494Z,100874.50
2023-05-11T23:40:38.669Z,100878.81
2023-05-11T23:43:07.686Z,100877.00
2023-05-11T23:45:37.316Z,100877.97
2023-05-11T23:48:07.430Z,100885.09
2023-05-11T23:50:36.331Z,100875.03
2023-05-11T23:53:06.729Z,100877.66
2023-05-11T23:55:35.229Z,100878.09
2023-05-11T23:58:04.153Z,100875.56
